Time;durP1;ratioP1;P1;durP2;ratioP2;P2;SDS_P1;SDS_P2;PMS_P1;PMS_P2;Temp;Humidity;BMP_temperature;BMP_pressure;BME280_temperature;BME280_humidity;BME280_pressure;Samples;Min_cycle;Max_cycle;Signal;HPM_P1;HPM_P2
2023/05/18 00:00:14;;;;;;;;;;;15.70;73.50;;;;;;5035230;27;83902;-41
2023/05/18 00:02:40;;;;;;;;;;;15.60;73.40;;;;;;5037600;28;82094;-42
2023/05/18 00:05:07;;;;;;;;;;;15.60;73.40;;;;;;5034974;28;81867;-41
2023/05/18 00:07:32;;;;;;;;;;;15.60;73.50;;;;;;5037175;28;84029;-41
2023/05/18 00:09:58;;;;;;;;;;;15.60;73.40;;;;;;5035306;28;84457;-41
2023/05/18 00:12:24;;;;;;;;;;;15.60;73.40;;;;;;5037694;28;81438;-40
2023/05/18 00:14:49;;;;;;;;;;;15.60;73.50;;;;;;5038939;28;82144;-41
2023/05/18 00:17:15;;;;;;;;;;;15.60;73.50;;;;;;5036791;28;82083;-41
2023/05/18 00:19:40;;;;;;;;;;;15.60;73.50;;;;;;5036127;27;82932;-41
2023/05/18 00:22:06;;;;;;;;;;;15.60;73.50;;;;;;5035827;28;82976;-41
2023/05/18 00:24:32;;;;;;;;;;;15.60;73.50;;;;;;5036886;28;82094;-41
2023/05/18 00:26:57;;;;;;;;;;;15.60;73.40;;;;;;5034548;28;82390;-41
2023/05/18 00:29:23;;;;;;;;;;;15.60;73.50;;;;;;5037406;28;83660;-41
2023/05/18 00:31:48;;;;;;;;;;;15.50;73.50;;;;;;5034999;28;82087;-41
2023/05/18 00:34:14;;;;;;;;;;;15.50;73.50;;;;;;5037920;28;82494;-41
2023/05/18 00:36:40;;;;;;;;;;;15.50;73.50;;;;;;5037076;28;83704;-41
2023/05/18 00:39:06;;;;;;;;;;;15.50;73.50;;;;;;5038233;28;82208;-41
2023/05/18 00:41:32;;;;;;;;;;;15.50;73.50;;;;;;5033666;28;82052;-41
2023/05/18 00:43:57;;;;;;;;;;;15.50;73.50;;;;;;5037043;28;83040;-41
2023/05/18 00:46:24;;;;;;;;;;;15.50;73.50;;;;;;5034799;28;83470;-41
2023/05/18 00:48:50;;;;;;;;;;;15.50;73.50;;;;;;5037018;28;84541;-41
2023/05/18 00:51:16;;;;;;;;;;;15.50;73.50;;;;;;5034578;28;82065;-41
2023/05/18 00:53:42;;;;;;;;;;;15.50;73.50;;;;;;5036972;28;82555;-41
2023/05/18 00:56:09;;;;;;;;;;;15.50;73.50;;;;;;5037303;28;84397;-41
2023/05/18 00:58:35;;;;;;;;;;;15.40;73.50;;;;;;5036664;28;82927;-41
2023/05/18 01:01:02;;;;;;;;;;;15.40;73.50;;;;;;5035815;28;82438;-41
2023/05/18 01:03:29;;;;;;;;;;;15.50;73.50;;;;;;5036412;28;82234;-41
2023/05/18 01:05:56;;;;;;;;;;;15.40;73.50;;;;;;5034932;27;83837;-41
2023/05/18 01:08:22;;;;;;;;;;;15.40;73.50;;;;;;5035023;28;84777;-41
2023/05/18 01:11:11;;;;;;;;;;;15.40;73.50;;;;;;5035188;28;82023;-41
2023/05/18 01:13:42;;;;;;;;;;;15.40;73.50;;;;;;5022463;28;82361;-41
2023/05/18 01:16:11;;;;;;;;;;;15.40;73.50;;;;;;5035811;28;82690;-41
2023/05/18 01:18:43;;;;;;;;;;;15.40;73.50;;;;;;5038271;28;82032;-41
2023/05/18 01:21:30;;;;;;;;;;;15.40;73.50;;;;;;5034644;28;83008;-41
2023/05/18 01:24:14;;;;;;;;;;;15.40;73.60;;;;;;5032036;28;82163;-41
2023/05/18 01:26:44;;;;;;;;;;;15.40;73.60;;;;;;5034146;27;83095;-41
2023/05/18 01:29:10;;;;;;;;;;;15.40;73.60;;;;;;5029047;28;81877;-41
2023/05/18 01:31:36;;;;;;;;;;;15.30;73.50;;;;;;5037283;28;82032;-41
2023/05/18 01:34:02;;;;;;;;;;;15.30;73.60;;;;;;5033029;27;83047;-40
2023/05/18 01:36:27;;;;;;;;;;;15.30;73.50;;;;;;5036494;28;82784;-41
2023/05/18 01:38:53;;;;;;;;;;;15.40;73.50;;;;;;5035943;28;82069;-40
2023/05/18 01:41:26;;;;;;;;;;;15.30;73.50;;;;;;5042706;28;82322;-41
2023/05/18 01:43:58;;;;;;;;;;;15.30;73.60;;;;;;5037099;28;81945;-41
2023/05/18 01:46:42;;;;;;;;;;;15.30;73.50;;;;;;5033801;28;82738;-41
2023/05/18 01:49:23;;;;;;;;;;;15.30;73.60;;;;;;5034423;27;87992;-41
2023/05/18 01:51:49;;;;;;;;;;;15.30;73.60;;;;;;5030879;28;86363;-41
2023/05/18 01:54:16;;;;;;;;;;;15.30;73.60;;;;;;5036886;28;87939;-41
2023/05/18 01:56:41;;;;;;;;;;;15.30;73.60;;;;;;5033065;28;87127;-41
2023/05/18 01:59:07;;;;;;;;;;;15.30;73.70;;;;;;5036623;28;88555;-41
2023/05/18 02:01:32;;;;;;;;;;;15.30;73.70;;;;;;5033366;27;89099;-42
2023/05/18 02:03:58;;;;;;;;;;;15.30;73.70;;;;;;5038843;28;87979;-41
2023/05/18 02:06:24;;;;;;;;;;;15.20;73.60;;;;;;5033542;28;88019;-41
2023/05/18 02:08:50;;;;;;;;;;;15.20;73.60;;;;;;5035883;28;87359;-40
2023/05/18 02:11:15;;;;;;;;;;;15.30;73.60;;;;;;5033496;28;87114;-41
2023/05/18 02:13:41;;;;;;;;;;;15.20;73.60;;;;;;5035594;28;87283;-41
2023/05/18 02:16:06;;;;;;;;;;;15.20;73.70;;;;;;5034874;28;86463;-41
2023/05/18 02:18:35;;;;;;;;;;;15.20;73.60;;;;;;5035556;28;87149;-41
2023/05/18 02:21:00;;;;;;;;;;;15.20;73.70;;;;;;5034516;27;87327;-41
2023/05/18 02:23:26;;;;;;;;;;;15.20;73.70;;;;;;5034025;28;89069;-41
2023/05/18 02:25:55;;;;;;;;;;;15.20;73.70;;;;;;5037890;28;87068;-41
2023/05/18 02:28:21;;;;;;;;;;;15.20;73.70;;;;;;5034010;28;89221;-41
2023/05/18 02:30:46;;;;;;;;;;;15.20;73.70;;;;;;5034602;28;87218;-41
2023/05/18 02:33:11;;;;;;;;;;;15.10;73.70;;;;;;5034567;28;87489;-41
2023/05/18 02:35:37;;;;;;;;;;;15.10;73.60;;;;;;5034947;28;88145;-41
2023/05/18 02:38:03;;;;;;;;;;;15.10;73.70;;;;;;5033963;28;87236;-41
2023/05/18 02:40:28;;;;;;;;;;;15.10;73.70;;;;;;5036447;27;88456;-41
2023/05/18 02:42:54;;;;;;;;;;;15.20;73.70;;;;;;5032908;28;87973;-41
2023/05/18 02:45:20;;;;;;;;;;;15.10;73.70;;;;;;5035847;28;87170;-41
2023/05/18 02:47:46;;;;;;;;;;;15.10;73.70;;;;;;5034756;28;89639;-41
2023/05/18 02:50:11;;;;;;;;;;;15.10;73.70;;;;;;5035444;27;87007;-41
2023/05/18 02:52:38;;;;;;;;;;;15.10;73.70;;;;;;5028525;28;87376;-41
2023/05/18 02:55:04;;;;;;;;;;;15.10;73.70;;;;;;5035499;28;89398;-41
2023/05/18 02:57:31;;;;;;;;;;;15.10;73.70;;;;;;5032512;28;87217;-41
2023/05/18 02:59:57;;;;;;;;;;;15.10;73.80;;;;;;5035954;28;87336;-41
2023/05/18 03:02:22;;;;;;;;;;;15.10;73.70;;;;;;5032523;28;89415;-41
2023/05/18 03:04:52;;;;;;;;;;;15.10;73.80;;;;;;5035156;28;86437;-41
2023/05/18 03:07:26;;;;;;;;;;;15.00;73.70;;;;;;5034935;28;87065;-41
2023/05/18 03:09:51;;;;;;;;;;;15.10;73.80;;;;;;5028753;28;87178;-40
2023/05/18 03:12:17;;;;;;;;;;;15.00;73.80;;;;;;5035591;28;87973;-41
2023/05/18 03:14:43;;;;;;;;;;;15.00;73.80;;;;;;5027874;28;88142;-41
2023/05/18 03:17:08;;;;;;;;;;;15.00;73.80;;;;;;5035862;28;87241;-40
2023/05/18 03:19:34;;;;;;;;;;;15.00;73.80;;;;;;5032823;28;86987;-41
2023/05/18 03:21:59;;;;;;;;;;;15.00;73.80;;;;;;5034689;28;89210;-41
2023/05/18 03:24:29;;;;;;;;;;;15.00;73.80;;;;;;5033074;28;87135;-41
2023/05/18 03:26:55;;;;;;;;;;;15.00;73.80;;;;;;5034888;28;87417;-41
2023/05/18 03:29:21;;;;;;;;;;;15.00;73.80;;;;;;5035471;28;88121;-41
2023/05/18 03:31:47;;;;;;;;;;;15.00;73.90;;;;;;5034872;28;87011;-41
2023/05/18 03:34:12;;;;;;;;;;;14.90;73.80;;;;;;5032636;28;87922;-41
2023/05/18 03:36:38;;;;;;;;;;;14.90;73.80;;;;;;5033762;28;88074;-41
2023/05/18 03:39:05;;;;;;;;;;;14.90;73.80;;;;;;5033698;28;88364;-41
2023/05/18 03:41:30;;;;;;;;;;;15.00;73.90;;;;;;5033264;28;89446;-41
2023/05/18 03:43:56;;;;;;;;;;;14.90;73.80;;;;;;5033786;28;87128;-41
2023/05/18 03:46:22;;;;;;;;;;;14.90;73.90;;;;;;5033337;28;88027;-41
2023/05/18 03:48:47;;;;;;;;;;;14.90;73.80;;;;;;5033525;28;88125;-41
2023/05/18 03:51:13;;;;;;;;;;;14.90;73.90;;;;;;5035411;28;88283;-41
2023/05/18 03:53:38;;;;;;;;;;;14.90;73.90;;;;;;5034678;28;86555;-41
2023/05/18 03:56:04;;;;;;;;;;;14.90;73.90;;;;;;5032207;28;87137;-41
2023/05/18 03:58:29;;;;;;;;;;;14.90;73.90;;;;;;5035103;28;86968;-41
2023/05/18 04:00:55;;;;;;;;;;;14.90;73.90;;;;;;5030630;28;88566;-41
2023/05/18 04:03:23;;;;;;;;;;;14.80;73.80;;;;;;5034951;28;87103;-41
2023/05/18 04:05:50;;;;;;;;;;;14.90;73.80;;;;;;5026743;28;88990;-41
2023/05/18 04:08:16;;;;;;;;;;;14.90;73.90;;;;;;5034685;28;87935;-41
2023/05/18 04:10:42;;;;;;;;;;;14.90;74.00;;;;;;5009303;28;87298;-41
2023/05/18 04:13:07;;;;;;;;;;;14.90;73.90;;;;;;5033821;28;86998;-41
2023/05/18 04:15:33;;;;;;;;;;;14.90;73.90;;;;;;5034846;28;87162;-40
2023/05/18 04:18:00;;;;;;;;;;;14.90;73.90;;;;;;5031970;27;89309;-41
2023/05/18 04:20:29;;;;;;;;;;;14.80;73.80;;;;;;5033554;28;89319;-40
2023/05/18 04:22:56;;;;;;;;;;;14.80;73.80;;;;;;5031395;28;87079;-40
2023/05/18 04:25:25;;;;;;;;;;;14.80;73.90;;;;;;5033003;28;88000;-41
2023/05/18 04:27:51;;;;;;;;;;;14.80;73.90;;;;;;5029978;28;89223;-40
2023/05/18 04:30:17;;;;;;;;;;;14.80;73.80;;;;;;5034081;28;87162;-41
2023/05/18 04:32:43;;;;;;;;;;;14.80;74.00;;;;;;5030513;27;89301;-41
2023/05/18 04:35:09;;;;;;;;;;;14.80;74.00;;;;;;5035868;28;88015;-41
2023/05/18 04:37:35;;;;;;;;;;;14.80;73.80;;;;;;5030634;27;88897;-41
2023/05/18 04:40:06;;;;;;;;;;;14.80;73.90;;;;;;5032533;28;89596;-41
2023/05/18 04:42:33;;;;;;;;;;;14.80;74.00;;;;;;5031866;28;86254;-41
2023/05/18 04:44:59;;;;;;;;;;;14.80;74.00;;;;;;5033202;28;87026;-41
2023/05/18 04:47:24;;;;;;;;;;;14.70;73.90;;;;;;5030339;28;89625;-41
2023/05/18 04:49:53;;;;;;;;;;;14.80;74.00;;;;;;5032212;28;88464;-41
2023/05/18 04:52:19;;;;;;;;;;;14.70;74.00;;;;;;5030698;28;89800;-41
2023/05/18 04:54:45;;;;;;;;;;;14.80;74.00;;;;;;5031910;28;89388;-41
2023/05/18 04:57:11;;;;;;;;;;;14.80;74.00;;;;;;5033603;28;87150;-41
2023/05/18 04:59:37;;;;;;;;;;;14.70;74.00;;;;;;5032231;28;88608;-41
2023/05/18 05:02:03;;;;;;;;;;;14.70;74.00;;;;;;5031234;28;87100;-41
2023/05/18 05:04:28;;;;;;;;;;;14.70;74.00;;;;;;5031027;28;87139;-41
2023/05/18 05:06:54;;;;;;;;;;;14.80;74.00;;;;;;5031477;28;88354;-40
2023/05/18 05:09:20;;;;;;;;;;;14.70;73.90;;;;;;5031661;28;87373;-40
2023/05/18 05:11:45;;;;;;;;;;;14.80;74.00;;;;;;5032097;28;87275;-41
2023/05/18 05:14:11;;;;;;;;;;;14.70;73.90;;;;;;5029368;28;89101;-41
2023/05/18 05:16:36;;;;;;;;;;;14.70;73.90;;;;;;5035011;28;87067;-41
2023/05/18 05:19:02;;;;;;;;;;;14.70;73.90;;;;;;5029889;28;87177;-41
2023/05/18 05:21:28;;;;;;;;;;;14.70;74.00;;;;;;5032899;28;87165;-41
2023/05/18 05:23:53;;;;;;;;;;;14.70;74.00;;;;;;5029493;28;87499;-41
2023/05/18 05:26:20;;;;;;;;;;;14.70;74.00;;;;;;5029433;28;88059;-41
2023/05/18 05:28:46;;;;;;;;;;;14.70;74.10;;;;;;5025570;28;87072;-41
2023/05/18 05:31:11;;;;;;;;;;;14.70;74.10;;;;;;5033843;28;87601;-41
2023/05/18 05:33:37;;;;;;;;;;;14.70;74.00;;;;;;5029565;28;87832;-40
2023/05/18 05:36:04;;;;;;;;;;;14.60;74.00;;;;;;5032588;28;87140;-40
2023/05/18 05:38:30;;;;;;;;;;;14.70;74.20;;;;;;5031980;27;88966;-40
2023/05/18 05:40:55;;;;;;;;;;;14.70;74.10;;;;;;5032473;28;88016;-41
2023/05/18 05:43:21;;;;;;;;;;;14.70;74.10;;;;;;5031148;27;87396;-41
2023/05/18 05:45:46;;;;;;;;;;;14.60;74.10;;;;;;5032029;28;88088;-40
2023/05/18 05:48:12;;;;;;;;;;;14.60;74.10;;;;;;5030978;28;87121;-41
2023/05/18 05:50:37;;;;;;;;;;;14.60;74.10;;;;;;5032013;28;87453;-40
2023/05/18 05:53:03;;;;;;;;;;;14.60;74.20;;;;;;5031119;28;88101;-41
2023/05/18 05:55:28;;;;;;;;;;;14.60;74.80;;;;;;5031443;28;86371;-41
2023/05/18 05:57:54;;;;;;;;;;;14.60;74.20;;;;;;5031852;28;87127;-41
2023/05/18 06:00:19;;;;;;;;;;;14.60;74.10;;;;;;5032976;28;88793;-41
2023/05/18 06:02:45;;;;;;;;;;;14.60;74.20;;;;;;5031469;27;88084;-40
2023/05/18 06:05:11;;;;;;;;;;;14.60;74.10;;;;;;5028647;28;88587;-41
2023/05/18 06:07:36;;;;;;;;;;;14.50;74.10;;;;;;5032097;27;87379;-41
2023/05/18 06:10:02;;;;;;;;;;;14.60;74.20;;;;;;5029032;28;87268;-40
2023/05/18 06:12:28;;;;;;;;;;;14.60;74.20;;;;;;5033030;28;87491;-41
2023/05/18 06:14:56;;;;;;;;;;;14.50;74.10;;;;;;5024133;28;87129;-41
2023/05/18 06:17:23;;;;;;;;;;;14.60;74.30;;;;;;5025731;28;88700;-41
2023/05/18 06:19:48;;;;;;;;;;;14.60;74.30;;;;;;5025155;28;88618;-41
2023/05/18 06:22:14;;;;;;;;;;;14.50;74.20;;;;;;5036285;28;87155;-41
2023/05/18 06:24:39;;;;;;;;;;;14.50;74.20;;;;;;5029560;27;87713;-41
2023/05/18 06:27:05;;;;;;;;;;;14.50;74.20;;;;;;5034881;28;87792;-41
2023/05/18 06:29:30;;;;;;;;;;;14.50;74.20;;;;;;5033494;27;89926;-41
2023/05/18 06:31:56;;;;;;;;;;;14.50;74.20;;;;;;5035289;28;88055;-41
2023/05/18 06:34:21;;;;;;;;;;;14.50;74.20;;;;;;5034065;28;87148;-40
2023/05/18 06:36:47;;;;;;;;;;;14.50;74.10;;;;;;5034558;28;87011;-40
2023/05/18 06:39:13;;;;;;;;;;;14.50;74.20;;;;;;5033346;28;87684;-40
2023/05/18 06:41:38;;;;;;;;;;;14.50;74.20;;;;;;5033827;28;88203;-41
2023/05/18 06:44:04;;;;;;;;;;;14.50;74.20;;;;;;5037166;28;87491;-40
2023/05/18 06:46:29;;;;;;;;;;;14.50;74.20;;;;;;5032801;28;87537;-40
2023/05/18 06:48:55;;;;;;;;;;;14.50;74.30;;;;;;5034783;27;87161;-41
2023/05/18 06:51:21;;;;;;;;;;;14.50;74.20;;;;;;5031701;28;90483;-41
2023/05/18 06:53:47;;;;;;;;;;;14.60;74.20;;;;;;5034936;28;87125;-41
2023/05/18 06:56:12;;;;;;;;;;;14.50;74.20;;;;;;5032067;28;88257;-40
2023/05/18 06:58:38;;;;;;;;;;;14.50;74.20;;;;;;5035145;28;88044;-41
2023/05/18 07:01:04;;;;;;;;;;;14.50;74.20;;;;;;5031521;28;87085;-40
2023/05/18 07:03:29;;;;;;;;;;;14.50;74.20;;;;;;5030209;28;87108;-41
2023/05/18 07:05:55;;;;;;;;;;;14.50;74.20;;;;;;5034591;28;87203;-41
2023/05/18 07:08:21;;;;;;;;;;;14.50;74.20;;;;;;5032166;28;87543;-41
2023/05/18 07:10:46;;;;;;;;;;;14.50;74.30;;;;;;5034340;28;89311;-41
2023/05/18 07:13:12;;;;;;;;;;;14.50;74.20;;;;;;5032615;28;87688;-41
2023/05/18 07:15:38;;;;;;;;;;;14.60;74.10;;;;;;5033220;28;89049;-42
2023/05/18 07:18:03;;;;;;;;;;;14.60;74.10;;;;;;5032235;28;87937;-41
2023/05/18 07:20:29;;;;;;;;;;;14.60;74.10;;;;;;5033353;28;87119;-41
2023/05/18 07:22:54;;;;;;;;;;;14.60;74.20;;;;;;5032858;27;88762;-41
2023/05/18 07:25:20;;;;;;;;;;;14.60;74.60;;;;;;5035234;28;88305;-41
2023/05/18 07:27:46;;;;;;;;;;;14.60;74.30;;;;;;5033692;28;87614;-41
2023/05/18 07:30:11;;;;;;;;;;;14.60;74.40;;;;;;5032095;28;87938;-41
2023/05/18 07:32:37;;;;;;;;;;;14.60;74.50;;;;;;5034511;28;86354;-40
2023/05/18 07:35:03;;;;;;;;;;;14.50;74.40;;;;;;5032017;28;88001;-40
2023/05/18 07:37:29;;;;;;;;;;;14.50;74.50;;;;;;5033148;28;87112;-40
2023/05/18 07:39:55;;;;;;;;;;;14.60;74.60;;;;;;5031396;28;88052;-41
2023/05/18 07:42:21;;;;;;;;;;;14.50;74.50;;;;;;5034799;28;89930;-41
2023/05/18 07:44:46;;;;;;;;;;;14.50;74.50;;;;;;5030717;28;87173;-41
2023/05/18 07:47:12;;;;;;;;;;;14.50;74.60;;;;;;5037206;28;87208;-41
2023/05/18 07:49:41;;;;;;;;;;;14.50;74.60;;;;;;5029995;28;87009;-41
2023/05/18 07:52:07;;;;;;;;;;;14.50;74.60;;;;;;5026455;28;87669;-41
2023/05/18 07:54:33;;;;;;;;;;;14.50;74.60;;;;;;5034435;27;88321;-40
2023/05/18 07:56:58;;;;;;;;;;;14.50;74.70;;;;;;5030668;28;87314;-41
2023/05/18 07:59:24;;;;;;;;;;;14.50;74.70;;;;;;5033113;28;87105;-40
2023/05/18 08:01:49;;;;;;;;;;;14.50;74.70;;;;;;5030782;27;88609;-40
2023/05/18 08:04:15;;;;;;;;;;;14.50;74.60;;;;;;5031074;28;88246;-41
2023/05/18 08:06:40;;;;;;;;;;;14.40;74.60;;;;;;5030835;28;87418;-40
2023/05/18 08:09:06;;;;;;;;;;;14.40;74.50;;;;;;5034832;28;87440;-40
2023/05/18 08:11:32;;;;;;;;;;;14.50;74.50;;;;;;5031082;28;87112;-41
2023/05/18 08:13:57;;;;;;;;;;;14.40;74.50;;;;;;5032247;28;86958;-41
2023/05/18 08:16:23;;;;;;;;;;;14.50;75.10;;;;;;5031498;28;89383;-40
2023/05/18 08:18:48;;;;;;;;;;;14.40;74.60;;;;;;5030738;28;87158;-41
2023/05/18 08:21:14;;;;;;;;;;;14.40;74.60;;;;;;5032627;28;86460;-40
2023/05/18 08:23:40;;;;;;;;;;;14.40;74.50;;;;;;5029746;28;88738;-41
2023/05/18 08:26:07;;;;;;;;;;;14.40;74.60;;;;;;5032262;28;87130;-41
2023/05/18 08:28:33;;;;;;;;;;;14.40;74.50;;;;;;5029775;28;88016;-41
2023/05/18 08:30:59;;;;;;;;;;;14.40;74.60;;;;;;5035174;28;87403;-40
2023/05/18 08:33:24;;;;;;;;;;;14.40;74.60;;;;;;5029908;28;87467;-41
2023/05/18 08:35:50;;;;;;;;;;;14.40;74.50;;;;;;5032843;28;88448;-41
2023/05/18 08:38:16;;;;;;;;;;;14.40;74.50;;;;;;5029343;28;87264;-41
2023/05/18 08:40:44;;;;;;;;;;;14.40;74.60;;;;;;5032994;28;87004;-41
2023/05/18 08:43:26;;;;;;;;;;;14.40;74.60;;;;;;5024877;28;88233;-40
2023/05/18 08:46:05;;;;;;;;;;;14.30;74.60;;;;;;5029537;28;86351;-41
2023/05/18 08:48:31;;;;;;;;;;;14.30;74.50;;;;;;5029031;28;87302;-41
2023/05/18 08:50:57;;;;;;;;;;;14.40;74.50;;;;;;5032805;28;87957;-41
2023/05/18 08:53:23;;;;;;;;;;;14.40;74.50;;;;;;5032747;28;87924;-40
2023/05/18 08:55:52;;;;;;;;;;;14.30;74.40;;;;;;5032024;28;87998;-41
2023/05/18 08:58:18;;;;;;;;;;;14.30;74.50;;;;;;5030100;28;87170;-40
2023/05/18 09:00:44;;;;;;;;;;;14.30;74.50;;;;;;5032060;28;87210;-41
2023/05/18 09:03:10;;;;;;;;;;;14.30;74.50;;;;;;5029705;28;87895;-41
2023/05/18 09:05:36;;;;;;;;;;;14.30;74.40;;;;;;5030173;28;87703;-41
2023/05/18 09:08:05;;;;;;;;;;;14.30;74.40;;;;;;5029819;27;87257;-40
2023/05/18 09:10:31;;;;;;;;;;;14.30;74.50;;;;;;5031640;28;87091;-41
2023/05/18 09:12:57;;;;;;;;;;;14.30;74.30;;;;;;5033021;28;87000;-41
2023/05/18 09:15:24;;;;;;;;;;;14.30;74.30;;;;;;5030708;28;87942;-41
2023/05/18 09:17:49;;;;;;;;;;;14.30;74.30;;;;;;5029323;28;88490;-41
2023/05/18 09:20:15;;;;;;;;;;;14.30;74.30;;;;;;5030745;28;88289;-40
2023/05/18 09:22:40;;;;;;;;;;;14.30;74.30;;;;;;5030181;28;88004;-40
2023/05/18 09:25:09;;;;;;;;;;;14.30;74.30;;;;;;5030279;28;87450;-40
2023/05/18 09:27:35;;;;;;;;;;;14.30;74.30;;;;;;5030290;27;87984;-40
2023/05/18 09:30:01;;;;;;;;;;;14.30;74.30;;;;;;5029681;28;89022;-41
2023/05/18 09:32:27;;;;;;;;;;;14.30;74.20;;;;;;5030667;28;87043;-41
2023/05/18 09:34:52;;;;;;;;;;;14.30;74.20;;;;;;5032198;28;88922;-41
2023/05/18 09:37:19;;;;;;;;;;;14.30;74.20;;;;;;5031328;28;87127;-41
2023/05/18 09:39:45;;;;;;;;;;;14.30;74.20;;;;;;5029593;28;87423;-41
2023/05/18 09:42:11;;;;;;;;;;;14.30;74.20;;;;;;5030893;28;89003;-41
2023/05/18 09:44:36;;;;;;;;;;;14.30;74.30;;;;;;5028905;28;87453;-41
2023/05/18 09:47:07;;;;;;;;;;;14.30;74.20;;;;;;5031844;28;87277;-41
2023/05/18 09:49:32;;;;;;;;;;;14.30;74.20;;;;;;5028300;28;90330;-41
2023/05/18 09:51:59;;;;;;;;;;;14.30;74.20;;;;;;5031489;28;87097;-41
2023/05/18 09:54:24;;;;;;;;;;;14.30;74.10;;;;;;5028738;28;88814;-41
2023/05/18 09:56:50;;;;;;;;;;;14.30;74.10;;;;;;5034817;28;89415;-41
2023/05/18 09:59:16;;;;;;;;;;;14.30;74.10;;;;;;5029301;27;89001;-41
2023/05/18 10:01:54;;;;;;;;;;;14.30;74.20;;;;;;5035219;28;88645;-40
2023/05/18 10:04:20;;;;;;;;;;;14.30;74.10;;;;;;5029808;28;87738;-41
2023/05/18 10:06:49;;;;;;;;;;;14.30;74.10;;;;;;5033138;27;89245;-41
2023/05/18 10:09:15;;;;;;;;;;;14.30;74.10;;;;;;5031412;28;89982;-41
2023/05/18 10:11:41;;;;;;;;;;;14.30;74.00;;;;;;5034011;28;87095;-41
2023/05/18 10:14:09;;;;;;;;;;;14.30;74.00;;;;;;5031878;28;87564;-41
2023/05/18 10:16:35;;;;;;;;;;;14.30;73.90;;;;;;5033696;28;88160;-41
2023/05/18 10:19:01;;;;;;;;;;;14.30;73.90;;;;;;5034438;28;87387;-40
2023/05/18 10:21:28;;;;;;;;;;;14.30;74.00;;;;;;5033928;28;88187;-41
2023/05/18 10:23:54;;;;;;;;;;;14.30;73.80;;;;;;5031968;28;86563;-40
2023/05/18 10:26:21;;;;;;;;;;;14.30;73.80;;;;;;5033799;27;87108;-41
2023/05/18 10:28:48;;;;;;;;;;;14.30;73.80;;;;;;5030951;28;88163;-41
2023/05/18 10:31:14;;;;;;;;;;;14.30;73.80;;;;;;5033718;28;88037;-40
2023/05/18 10:33:40;;;;;;;;;;;14.30;73.70;;;;;;5030813;28;88114;-40
2023/05/18 10:36:06;;;;;;;;;;;14.30;73.70;;;;;;5034406;28;88069;-41
2023/05/18 10:38:32;;;;;;;;;;;14.30;73.60;;;;;;5027137;28;87082;-41
2023/05/18 10:40:59;;;;;;;;;;;14.30;73.70;;;;;;5036798;28;87352;-41
2023/05/18 10:43:28;;;;;;;;;;;14.30;73.80;;;;;;5030419;28;87373;-40
2023/05/18 10:45:54;;;;;;;;;;;14.30;73.70;;;;;;5026075;28;87514;-41
2023/05/18 10:48:20;;;;;;;;;;;14.30;73.70;;;;;;5032959;28;90342;-40
2023/05/18 10:50:50;;;;;;;;;;;14.30;73.70;;;;;;5031002;28;87120;-40
2023/05/18 10:53:16;;;;;;;;;;;14.30;73.70;;;;;;5026771;28;87052;-41
2023/05/18 10:55:42;;;;;;;;;;;14.30;73.70;;;;;;5034350;28;88357;-41
2023/05/18 10:58:11;;;;;;;;;;;14.30;73.70;;;;;;5031940;28;87909;-41
2023/05/18 11:00:38;;;;;;;;;;;14.30;73.70;;;;;;5034705;28;87038;-41
2023/05/18 11:03:07;;;;;;;;;;;14.30;73.70;;;;;;5033447;28;89859;-41
2023/05/18 11:05:32;;;;;;;;;;;14.30;73.70;;;;;;5026403;28;87514;-40
2023/05/18 11:08:04;;;;;;;;;;;14.30;73.70;;;;;;5034420;28;88355;-41
2023/05/18 11:10:41;;;;;;;;;;;14.30;73.60;;;;;;5026971;28;87657;-40
2023/05/18 11:13:07;;;;;;;;;;;14.30;73.60;;;;;;5033205;28;87969;-40
2023/05/18 11:15:51;;;;;;;;;;;14.30;73.60;;;;;;5030639;28;88346;-40
2023/05/18 11:18:16;;;;;;;;;;;14.30;73.60;;;;;;5030130;27;87155;-41
2023/05/18 11:20:44;;;;;;;;;;;14.30;73.70;;;;;;5032758;28;88378;-40
2023/05/18 11:23:09;;;;;;;;;;;14.30;73.50;;;;;;5032727;28;86960;-41
2023/05/18 11:25:35;;;;;;;;;;;14.30;73.50;;;;;;5033633;28;86958;-40
2023/05/18 11:28:04;;;;;;;;;;;14.30;73.40;;;;;;5030115;28;87320;-40
2023/05/18 11:30:32;;;;;;;;;;;14.30;73.50;;;;;;5032963;28;87145;-40
2023/05/18 11:33:10;;;;;;;;;;;14.30;73.50;;;;;;5030267;28;87360;-40
2023/05/18 11:35:53;;;;;;;;;;;14.20;73.50;;;;;;5026970;28;89214;-40
2023/05/18 11:38:19;;;;;;;;;;;14.30;73.50;;;;;;5031107;28;86868;-41
2023/05/18 11:40:48;;;;;;;;;;;14.30;73.50;;;;;;5032955;28;87180;-40
2023/05/18 11:43:18;;;;;;;;;;;14.30;73.40;;;;;;5030076;28;88019;-40
2023/05/18 11:46:10;;;;;;;;;;;14.20;73.40;;;;;;5035265;28;88494;-40
2023/05/18 11:48:42;;;;;;;;;;;14.30;73.20;;;;;;5029082;28;89552;-41
2023/05/18 11:51:10;;;;;;;;;;;14.30;73.20;;;;;;5030449;28;87168;-40
2023/05/18 11:53:36;;;;;;;;;;;14.20;73.00;;;;;;5033209;28;88859;-40
2023/05/18 11:56:01;;;;;;;;;;;14.20;73.10;;;;;;5030216;28;88198;-40
2023/05/18 11:58:29;;;;;;;;;;;14.20;73.00;;;;;;5032744;28;87138;-40
2023/05/18 12:00:54;;;;;;;;;;;14.20;72.90;;;;;;5030488;28;88033;-40
2023/05/18 12:03:24;;;;;;;;;;;14.20;72.80;;;;;;5032639;28;86470;-40
2023/05/18 12:05:50;;;;;;;;;;;14.20;72.80;;;;;;5029375;28;87640;-40
2023/05/18 12:08:17;;;;;;;;;;;14.20;72.80;;;;;;5034818;28;87565;-40
2023/05/18 12:10:43;;;;;;;;;;;14.20;72.80;;;;;;5029380;28;88512;-40
2023/05/18 12:13:09;;;;;;;;;;;14.20;72.60;;;;;;5032446;28;88330;-41
2023/05/18 12:15:35;;;;;;;;;;;14.20;72.50;;;;;;5030381;28;87965;-40
2023/05/18 12:18:00;;;;;;;;;;;14.20;72.50;;;;;;5032279;28;87037;-40
2023/05/18 12:20:29;;;;;;;;;;;14.20;72.50;;;;;;5031070;28;87475;-40
2023/05/18 12:22:55;;;;;;;;;;;14.20;72.50;;;;;;5030547;28;87851;-40
2023/05/18 12:25:22;;;;;;;;;;;14.20;72.50;;;;;;5030893;28;87079;-41
2023/05/18 12:27:48;;;;;;;;;;;14.20;72.60;;;;;;5032771;28;87687;-40
2023/05/18 12:30:14;;;;;;;;;;;14.20;72.50;;;;;;5033820;28;88332;-40
2023/05/18 12:33:01;;;;;;;;;;;14.20;72.50;;;;;;5031937;28;87592;-40
2023/05/18 12:35:27;;;;;;;;;;;14.20;72.50;;;;;;5025733;28;88449;-41
2023/05/18 12:38:00;;;;;;;;;;;14.20;72.50;;;;;;5032652;28;87075;-40
2023/05/18 12:40:36;;;;;;;;;;;14.20;72.50;;;;;;5030279;28;88869;-40
2023/05/18 12:43:03;;;;;;;;;;;14.20;72.50;;;;;;5030637;28;88003;-41
2023/05/18 12:45:31;;;;;;;;;;;14.20;72.50;;;;;;5031109;28;87063;-40
2023/05/18 12:48:04;;;;;;;;;;;14.20;72.60;;;;;;5029881;27;87691;-40
2023/05/18 12:50:29;;;;;;;;;;;14.20;72.80;;;;;;5031868;28;88605;-41
2023/05/18 12:52:55;;;;;;;;;;;14.10;72.50;;;;;;5033585;28;86367;-41
2023/05/18 12:55:21;;;;;;;;;;;14.20;72.60;;;;;;5030846;28;89596;-41
2023/05/18 12:58:02;;;;;;;;;;;14.20;72.60;;;;;;5029978;28;87275;-41
2023/05/18 13:00:31;;;;;;;;;;;14.20;72.50;;;;;;5024890;28;88894;-40
2023/05/18 13:03:06;;;;;;;;;;;14.20;72.50;;;;;;5031929;28;88093;-40
2023/05/18 13:05:32;;;;;;;;;;;14.10;72.50;;;;;;5029858;28;87102;-40
2023/05/18 13:07:57;;;;;;;;;;;14.10;72.60;;;;;;5031555;28;88088;-40
2023/05/18 13:10:23;;;;;;;;;;;14.10;72.60;;;;;;5030129;28;88035;-40
2023/05/18 13:12:49;;;;;;;;;;;14.10;72.50;;;;;;5032561;28;87134;-40
2023/05/18 13:15:16;;;;;;;;;;;14.10;72.60;;;;;;5033178;28;87435;-40
2023/05/18 13:17:51;;;;;;;;;;;14.10;72.70;;;;;;5032426;28;86470;-40
2023/05/18 13:20:17;;;;;;;;;;;14.10;72.80;;;;;;5030396;28;87049;-40
2023/05/18 13:22:42;;;;;;;;;;;14.10;72.70;;;;;;5030689;28;88638;-40
2023/05/18 13:25:08;;;;;;;;;;;14.10;72.80;;;;;;5028937;28;87998;-40
2023/05/18 13:27:34;;;;;;;;;;;14.10;72.80;;;;;;5031844;27;88296;-40
2023/05/18 13:29:59;;;;;;;;;;;14.10;72.90;;;;;;5029061;28;88070;-40
2023/05/18 13:32:25;;;;;;;;;;;14.10;72.90;;;;;;5032167;28;87086;-40
2023/05/18 13:34:51;;;;;;;;;;;14.00;72.80;;;;;;5033105;28;87326;-40
2023/05/18 13:37:17;;;;;;;;;;;14.10;72.90;;;;;;5035810;28;87687;-40
2023/05/18 13:39:43;;;;;;;;;;;14.10;72.90;;;;;;5032123;28;87374;-40
2023/05/18 13:42:08;;;;;;;;;;;14.00;73.00;;;;;;5028191;28;87576;-40
2023/05/18 13:44:34;;;;;;;;;;;14.00;72.90;;;;;;5036026;28;87203;-41
2023/05/18 13:46:59;;;;;;;;;;;14.00;72.90;;;;;;5032898;28;87470;-40
2023/05/18 13:49:25;;;;;;;;;;;14.00;73.00;;;;;;5034121;28;90411;-40
2023/05/18 13:51:50;;;;;;;;;;;14.00;72.90;;;;;;5033124;28;88310;-40
2023/05/18 13:54:16;;;;;;;;;;;14.00;73.00;;;;;;5034950;28;88795;-40
2023/05/18 13:56:42;;;;;;;;;;;14.00;73.60;;;;;;5036304;28;88174;-40
2023/05/18 13:59:07;;;;;;;;;;;14.00;73.00;;;;;;5034554;28;87035;-41
2023/05/18 14:01:33;;;;;;;;;;;14.00;73.00;;;;;;5032844;28;89372;-40
2023/05/18 14:03:58;;;;;;;;;;;14.00;73.00;;;;;;5033267;28;87121;-40
2023/05/18 14:06:26;;;;;;;;;;;14.00;73.00;;;;;;5034401;28;87594;-40
2023/05/18 14:08:52;;;;;;;;;;;14.00;73.00;;;;;;5032681;28;87963;-40
2023/05/18 14:11:17;;;;;;;;;;;14.00;73.10;;;;;;5033638;28;87087;-40
2023/05/18 14:13:43;;;;;;;;;;;14.00;73.10;;;;;;5031931;28;88033;-40